Time;durP1;ratioP1;P1;durP2;ratioP2;P2;SDS_P1;SDS_P2;PMS_P1;PMS_P2;Temp;Humidity;BMP_temperature;BMP_pressure;BME280_temperature;BME280_humidity;BME280_pressure;Samples;Min_cycle;Max_cycle;Signal;HPM_P1;HPM_P2
2022/01/12 00:00:06;;;;;;;287.08;80.30;;;5.20;99.90;;;;;;4814831;29;20069;-80
2022/01/12 00:02:32;;;;;;;307.48;79.53;;;5.40;99.90;;;;;;4793617;29;20046;-80
2022/01/12 00:04:58;;;;;;;294.25;75.70;;;6.40;99.90;;;;;;4790867;29;20563;-80
2022/01/12 00:07:24;;;;;;;286.85;79.22;;;;;;;;;;4791864;29;20051;-80
2022/01/12 00:09:50;;;;;;;336.33;78.32;;;3.20;99.90;;;;;;4793273;29;20503;-80
2022/01/12 00:12:15;;;;;;;336.67;75.82;;;5.20;99.90;;;;;;4804688;29;20130;-80
2022/01/12 00:14:41;;;;;;;372.85;79.82;;;5.90;99.90;;;;;;4816987;29;20467;-81
2022/01/12 00:17:07;;;;;;;349.48;78.05;;;6.80;99.90;;;;;;4804896;29;20126;-80
2022/01/12 00:19:33;;;;;;;326.85;77.65;;;;;;;;;;4805019;29;20062;-81
2022/01/12 00:21:59;;;;;;;304.52;75.03;;;5.10;99.90;;;;;;4806817;29;20047;-80
2022/01/12 00:24:28;;;;;;;343.25;78.13;;;5.20;99.90;;;;;;4804320;29;20046;-79
2022/01/12 00:35:08;;;;;;;337.85;77.18;;;5.60;99.90;;;;;;4805028;29;20058;-79
2022/01/12 00:37:33;;;;;;;433.08;83.40;;;4.80;99.90;;;;;;4820834;29;20365;-79
2022/01/12 00:40:00;;;;;;;375.58;80.85;;;;;;;;;;4805949;29;20056;-79
2022/01/12 00:42:29;;;;;;;400.77;82.05;;;7.00;99.90;;;;;;4807500;29;20046;-80
2022/01/12 00:44:55;;;;;;;401.65;85.82;;;7.30;99.90;;;;;;4816790;29;20050;-81
2022/01/12 00:47:20;;;;;;;402.90;88.53;;;5.40;99.90;;;;;;4811141;29;20042;-80
2022/01/12 00:49:46;;;;;;;439.17;86.85;;;7.10;99.90;;;;;;4808792;29;20396;-80
2022/01/12 00:52:12;;;;;;;402.75;82.85;;;5.30;99.90;;;;;;4818364;29;20204;-80
2022/01/12 00:54:38;;;;;;;417.67;82.68;;;5.40;99.90;;;;;;4812135;29;20049;-80
2022/01/12 00:57:04;;;;;;;400.48;81.65;;;5.00;99.90;;;;;;4804054;29;20054;-80
2022/01/12 00:59:30;;;;;;;483.98;89.72;;;4.10;99.90;;;;;;4820131;29;20054;-79
2022/01/12 01:01:56;;;;;;;418.05;78.72;;;5.30;99.90;;;;;;4805837;29;20207;-79
2022/01/12 01:04:22;;;;;;;460.52;84.78;;;4.50;99.90;;;;;;4818447;29;20453;-80
2022/01/12 01:06:48;;;;;;;422.10;83.07;;;4.50;99.90;;;;;;4812574;29;20563;-79
2022/01/12 01:09:13;;;;;;;456.33;82.15;;;7.10;99.90;;;;;;4804034;29;20074;-79
2022/01/12 01:11:39;;;;;;;423.95;80.70;;;5.80;99.90;;;;;;4802220;29;20055;-79
2022/01/12 01:14:22;;;;;;;442.23;80.65;;;7.10;99.90;;;;;;4800568;29;20126;-79
2022/01/12 01:17:06;;;;;;;452.30;84.28;;;5.30;99.90;;;;;;4801027;29;20520;-80
2022/01/12 01:27:46;;;;;;;463.73;84.70;;;5.70;99.90;;;;;;4804249;29;20074;-80
2022/01/12 01:30:12;;;;;;;441.95;83.45;;;7.70;99.90;;;;;;4802702;29;20039;-80
2022/01/12 01:32:38;;;;;;;492.30;85.75;;;5.30;99.90;;;;;;4804059;29;20042;-80
2022/01/12 01:35:04;;;;;;;469.00;83.88;;;6.30;99.90;;;;;;4802631;29;20127;-82
2022/01/12 01:37:30;;;;;;;485.45;82.78;;;3.60;99.90;;;;;;4802957;29;20146;-79
2022/01/12 01:39:56;;;;;;;503.15;82.28;;;6.10;99.90;;;;;;4801598;29;20129;-79
2022/01/12 01:42:29;;;;;;;454.83;81.40;;;6.30;99.90;;;;;;4815387;29;20050;-80
2022/01/12 01:55:40;;;;;;;545.80;82.80;;;5.90;99.90;;;;;;4800545;29;20126;-79
2022/01/12 01:58:06;;;;;;;;;;;5.50;99.90;;;;;;4790418;29;20054;-79
2022/01/12 02:00:34;;;;;;;575.75;82.32;;;5.70;99.90;;;;;;4795415;29;20251;-79
2022/01/12 02:03:01;;;;;;;546.25;80.13;;;7.10;99.90;;;;;;4801992;29;20052;-79
2022/01/12 02:05:26;;;;;;;585.72;82.90;;;6.60;99.90;;;;;;4784789;29;20111;-82
2022/01/12 02:07:52;;;;;;;535.50;82.07;;;5.50;99.90;;;;;;4803263;29;20047;-79
2022/01/12 02:10:18;;;;;;;548.78;82.07;;;5.40;99.90;;;;;;4805438;29;20058;-79
2022/01/12 02:12:44;;;;;;;535.95;80.13;;;5.60;99.90;;;;;;4802125;29;20118;-84
2022/01/12 02:15:17;;;;;;;579.55;83.28;;;5.40;99.90;;;;;;4807076;29;20085;-79
2022/01/12 02:18:00;;;;;;;543.80;82.72;;;5.40;99.90;;;;;;4805485;29;20095;-79
2022/01/12 02:37:12;;;;;;;528.67;80.00;;;4.60;99.90;;;;;;4803344;29;20360;-79
2022/01/12 02:39:52;;;;;;;550.33;78.53;;;;;;;;;;4810158;29;20127;-81
2022/01/12 02:42:19;;;;;;;442.30;72.28;;;5.50;99.90;;;;;;4794858;29;20058;-78
2022/01/12 02:50:43;;;;;;;468.15;77.10;;;5.10;99.90;;;;;;4791065;29;20489;-79
2022/01/12 02:55:53;;;;;;;557.17;79.35;;;;;;;;;;4816201;29;20062;-78
2022/01/12 02:58:19;;;;;;;551.70;81.45;;;5.20;99.90;;;;;;4808880;29;20046;-78
2022/01/12 03:01:09;;;;;;;531.95;78.60;;;6.00;99.90;;;;;;4805472;29;20058;-80
2022/01/12 03:03:39;;;;;;;508.20;77.40;;;5.30;99.90;;;;;;4787296;30;20055;-81
2022/01/12 03:06:07;;;;;;;505.80;77.90;;;5.50;99.90;;;;;;4803354;29;20051;-79
2022/01/12 03:08:37;;;;;;;630.83;79.53;;;4.00;99.90;;;;;;4775607;29;1103764;-79
2022/01/12 03:11:09;;;;;;;467.23;74.70;;;4.60;99.90;;;;;;4795225;29;20050;-79
2022/01/12 03:13:36;;;;;;;468.38;77.22;;;5.50;99.90;;;;;;4813860;29;20047;-87
2022/01/12 03:16:10;;;;;;;476.50;76.47;;;7.80;99.90;;;;;;4806055;29;20123;-80
2022/01/12 03:18:36;;;;;;;533.85;78.68;;;5.50;99.90;;;;;;4806120;29;20058;-82
2022/01/12 03:21:02;;;;;;;486.80;80.20;;;5.30;99.90;;;;;;4805014;29;20047;-80
2022/01/12 03:23:28;;;;;;;509.60;77.43;;;5.50;99.90;;;;;;4804485;29;20465;-80
2022/01/12 03:25:54;;;;;;;484.15;76.93;;;5.80;99.90;;;;;;4805756;29;20412;-80
2022/01/12 03:28:20;;;;;;;521.75;77.45;;;4.70;99.90;;;;;;4811475;29;20061;-80
2022/01/12 03:30:59;;;;;;;504.73;75.18;;;;;;;;;;4803885;29;20059;-81
2022/01/12 03:33:49;;;;;;;482.83;74.13;;;5.50;99.90;;;;;;4790393;29;20058;-80
2022/01/12 03:38:59;;;;;;;;;;;5.50;99.90;;;;;;4794202;29;20065;-80
2022/01/12 03:41:27;;;;;;;531.55;71.28;;;7.20;99.90;;;;;;4813117;29;19955;-80
2022/01/12 03:43:55;;;;;;;478.90;71.28;;;4.90;99.90;;;;;;4804490;29;20133;-84
2022/01/12 03:46:24;;;;;;;538.15;75.80;;;5.40;99.90;;;;;;4805286;29;20450;-79
2022/01/12 03:48:50;;;;;;;496.48;73.15;;;4.50;99.90;;;;;;4808576;29;20168;-79
2022/01/12 03:51:15;;;;;;;521.20;73.07;;;5.40;99.90;;;;;;4789827;29;20504;-80
2022/01/12 03:53:42;;;;;;;575.33;74.50;;;5.60;99.90;;;;;;4803537;29;20058;-80
2022/01/12 03:56:08;;;;;;;664.13;77.57;;;;;;;;;;4801521;29;20051;-79
2022/01/12 03:58:33;;;;;;;624.25;74.03;;;5.20;99.90;;;;;;4805328;29;20111;-79
2022/01/12 04:00:59;;;;;;;631.92;71.53;;;;;;;;;;4805055;29;20054;-81
2022/01/12 04:03:27;;;;;;;595.35;76.03;;;5.50;99.90;;;;;;4805357;29;20050;-82
2022/01/12 04:08:37;;;;;;;717.55;78.28;;;5.10;99.90;;;;;;4789544;29;20054;-79
2022/01/12 04:11:02;;;;;;;759.35;77.38;;;6.00;99.90;;;;;;4786771;29;20055;-79
2022/01/12 04:13:30;;;;;;;757.83;79.30;;;5.80;99.90;;;;;;4816928;29;20085;-79
2022/01/12 04:16:00;;;;;;;736.13;75.82;;;4.40;99.90;;;;;;4807303;29;20042;-79
2022/01/12 04:18:25;;;;;;;758.70;77.22;;;5.10;99.90;;;;;;4811469;29;20473;-79
2022/01/12 04:20:51;;;;;;;721.97;72.20;;;;;;;;;;4804324;29;20123;-81
2022/01/12 04:23:20;;;;;;;690.55;72.65;;;5.60;99.90;;;;;;4798511;29;20073;-79
2022/01/12 04:25:57;;;;;;;671.28;69.60;;;5.50;99.90;;;;;;4805152;29;20051;-79
2022/01/12 04:28:25;;;;;;;712.70;72.70;;;4.80;99.90;;;;;;4805605;29;20055;-80
2022/01/12 04:30:52;;;;;;;821.95;78.28;;;6.90;99.90;;;;;;4805010;29;20051;-79
2022/01/12 04:33:19;;;;;;;731.95;72.53;;;6.00;99.90;;;;;;4809948;29;20054;-79
2022/01/12 04:35:48;;;;;;;676.50;68.88;;;;;;;;;;4773667;29;20054;-79
2022/01/12 04:38:15;;;;;;;674.22;71.55;;;5.90;99.90;;;;;;4810673;29;20126;-79
2022/01/12 04:40:41;;;;;;;676.35;70.50;;;6.70;99.90;;;;;;4821125;29;20401;-79
2022/01/12 04:43:09;;;;;;;652.53;69.38;;;5.50;99.90;;;;;;4808084;29;20241;-79
2022/01/12 04:45:57;;;;;;;647.95;68.05;;;6.60;99.90;;;;;;4814571;29;20397;-79
2022/01/12 04:50:52;;;;;;;680.15;69.40;;;5.20;99.90;;;;;;4809061;29;20054;-80
2022/01/12 04:53:19;;;;;;;660.28;71.57;;;4.90;99.90;;;;;;4804345;29;20063;-80
2022/01/12 04:55:46;;;;;;;630.95;65.45;;;5.10;99.90;;;;;;4802476;29;20065;-80
2022/01/12 04:58:14;;;;;;;644.97;67.60;;;5.10;99.90;;;;;;4803988;29;20129;-80
2022/01/12 05:00:40;;;;;;;;;;;5.10;99.90;;;;;;4787987;29;20824;-82
2022/01/12 05:08:49;;;;;;;633.78;69.30;;;5.80;99.90;;;;;;4802597;29;20069;-79
2022/01/12 05:14:01;;;;;;;651.78;68.25;;;5.70;99.90;;;;;;4803391;29;20104;-79
2022/01/12 05:16:27;;;;;;;584.42;67.20;;;5.00;99.90;;;;;;4808605;29;20071;-80
2022/01/12 05:18:55;;;;;;;620.03;68.45;;;5.10;99.90;;;;;;4804632;29;20058;-85
2022/01/12 05:21:22;;;;;;;652.78;69.97;;;4.70;99.90;;;;;;4803176;29;20412;-79
2022/01/12 05:23:48;;;;;;;605.17;66.20;;;;;;;;;;4803986;29;20051;-79
2022/01/12 05:26:14;;;;;;;579.63;64.97;;;5.30;99.90;;;;;;4807985;29;20061;-80
2022/01/12 05:28:40;;;;;;;557.95;62.90;;;4.20;99.90;;;;;;4804168;29;20034;-82
2022/01/12 05:31:08;;;;;;;585.75;63.60;;;6.20;99.90;;;;;;4809162;29;20038;-78
2022/01/12 05:33:34;;;;;;;600.42;62.30;;;4.90;99.90;;;;;;4799838;29;20349;-79
2022/01/12 05:36:05;;;;;;;599.15;60.80;;;4.20;99.90;;;;;;4800334;29;20149;-79
2022/01/12 05:38:32;;;;;;;512.67;59.20;;;6.70;99.90;;;;;;4804793;29;20086;-79
2022/01/12 05:41:01;;;;;;;648.35;65.00;;;4.50;99.90;;;;;;4801443;29;20043;-80
2022/01/12 05:43:29;;;;;;;547.10;60.92;;;4.60;99.90;;;;;;4802990;29;20503;-79
2022/01/12 05:46:10;;;;;;;594.60;65.32;;;5.20;99.90;;;;;;4797068;29;20063;-85
2022/01/12 05:51:21;;;;;;;555.70;60.40;;;4.50;99.90;;;;;;4786953;29;20155;-79
2022/01/12 05:53:56;;;;;;;692.45;68.03;;;5.60;99.90;;;;;;4775970;29;20187;-79
2022/01/12 05:56:23;;;;;;;644.65;65.90;;;4.20;99.90;;;;;;4803810;29;20043;-79
2022/01/12 05:58:50;;;;;;;687.30;68.97;;;;;;;;;;4785454;29;20475;-82
2022/01/12 06:01:18;;;;;;;579.05;59.83;;;3.70;99.90;;;;;;4798992;29;20073;-79
2022/01/12 06:03:44;;;;;;;577.50;65.13;;;2.90;99.90;;;;;;4801568;29;20095;-79
2022/01/12 06:06:09;;;;;;;589.13;68.40;;;4.30;99.90;;;;;;4800592;29;20058;-79
2022/01/12 06:08:36;;;;;;;576.65;65.45;;;;;;;;;;4800619;29;20067;-79
2022/01/12 06:11:02;;;;;;;622.22;70.80;;;5.00;99.90;;;;;;4800986;29;20050;-79
2022/01/12 06:13:28;;;;;;;640.67;66.53;;;5.80;99.90;;;;;;4808327;29;20053;-79
2022/01/12 06:15:54;;;;;;;599.83;64.30;;;4.90;99.90;;;;;;4789244;29;20133;-78
2022/01/12 06:18:19;;;;;;;571.70;61.35;;;4.30;99.90;;;;;;4794648;29;20503;-79
2022/01/12 06:20:45;;;;;;;606.55;61.88;;;4.10;99.90;;;;;;4816299;29;20046;-78
2022/01/12 06:23:11;;;;;;;692.15;69.38;;;1.30;99.90;;;;;;4802739;29;20141;-79
2022/01/12 06:25:36;;;;;;;632.60;59.53;;;3.30;99.90;;;;;;4801949;29;20081;-78
2022/01/12 06:28:22;;;;;;;654.45;61.47;;;2.80;99.90;;;;;;4807535;29;20107;-79
2022/01/12 06:33:34;;;;;;;647.13;72.45;;;;;;;;;;4803160;29;20673;-79
2022/01/12 06:36:00;;;;;;;689.65;69.28;;;3.70;99.90;;;;;;4802185;29;20074;-81
2022/01/12 06:38:25;;;;;;;813.45;86.03;;;6.20;99.90;;;;;;4807910;29;20500;-78
2022/01/12 06:44:03;;;;;;;557.35;62.70;;;;;;;;;;4770242;30;20063;-79
2022/01/12 06:46:30;;;;;;;531.92;63.13;;;3.80;99.90;;;;;;4783162;29;20447;-79
2022/01/12 06:48:57;;;;;;;454.90;53.55;;;4.30;99.90;;;;;;4801060;29;20065;-81
2022/01/12 06:51:23;;;;;;;620.20;65.95;;;6.00;99.90;;;;;;4805138;29;20524;-79
2022/01/12 06:53:49;;;;;;;576.35;59.10;;;5.70;99.90;;;;;;4802846;29;20592;-79
2022/01/12 06:56:17;;;;;;;602.35;62.53;;;4.20;99.90;;;;;;4801614;29;20506;-79
2022/01/12 06:58:43;;;;;;;683.45;73.20;;;4.80;99.90;;;;;;4803982;29;20089;-79
2022/01/12 07:01:09;;;;;;;551.22;58.42;;;6.10;99.90;;;;;;4802638;29;20136;-79
2022/01/12 07:04:12;;;;;;;521.45;62.88;;;4.80;99.90;;;;;;4787286;29;20093;-79
2022/01/12 07:06:37;;;;;;;365.33;49.17;;;4.20;99.90;;;;;;4801873;29;20418;-79
2022/01/12 07:09:04;;;;;;;530.47;59.65;;;3.80;99.90;;;;;;4801854;29;20103;-79
2022/01/12 07:11:30;;;;;;;517.75;59.60;;;;;;;;;;4802654;29;20462;-79
2022/01/12 07:13:56;;;;;;;448.70;56.42;;;3.90;99.90;;;;;;4803279;29;20055;-80
2022/01/12 07:16:23;;;;;;;551.70;63.50;;;3.20;99.90;;;;;;4803147;29;20051;-79
2022/01/12 07:18:49;;;;;;;573.65;62.60;;;3.90;99.90;;;;;;4803267;29;20388;-79
2022/01/12 07:21:15;;;;;;;490.08;55.85;;;;;;;;;;4802198;29;20476;-78
2022/01/12 07:23:41;;;;;;;519.92;58.80;;;;;;;;;;4790285;29;20061;-80
2022/01/12 07:26:08;;;;;;;319.25;45.10;;;4.60;99.90;;;;;;4805563;29;20073;-78
2022/01/12 07:28:34;;;;;;;272.30;44.42;;;;;;;;;;4806375;29;20047;-80
2022/01/12 07:31:00;;;;;;;331.90;46.65;;;4.00;99.90;;;;;;4789880;29;20171;-78
2022/01/12 07:33:26;;;;;;;413.23;49.60;;;4.40;99.90;;;;;;4806130;29;20082;-78
2022/01/12 07:35:52;;;;;;;268.77;44.25;;;4.70;99.90;;;;;;4806222;29;20484;-78
2022/01/12 07:38:18;;;;;;;401.45;47.03;;;4.30;99.90;;;;;;4805573;29;20059;-78
2022/01/12 07:40:44;;;;;;;409.83;50.92;;;;;;;;;;4805520;29;20138;-78
2022/01/12 07:43:11;;;;;;;418.58;50.17;;;5.10;99.90;;;;;;4805151;29;20055;-78
2022/01/12 07:45:38;;;;;;;421.33;53.00;;;;;;;;;;4817100;29;20069;-78
2022/01/12 07:48:04;;;;;;;487.95;56.65;;;4.20;99.90;;;;;;4803614;29;20053;-78
2022/01/12 07:50:30;;;;;;;317.63;46.13;;;4.00;99.90;;;;;;4805211;29;20123;-78
2022/01/12 07:52:55;;;;;;;331.30;49.35;;;5.00;99.90;;;;;;4806105;29;20430;-78
2022/01/12 07:55:22;;;;;;;271.38;44.80;;;4.70;99.90;;;;;;4813009;29;20115;-78
2022/01/12 07:57:49;;;;;;;361.05;50.13;;;6.20;99.90;;;;;;4820793;29;20081;-78
2022/01/12 08:00:16;;;;;;;350.17;53.53;;;3.70;99.90;;;;;;4803118;29;20135;-78
2022/01/12 08:02:42;;;;;;;307.08;49.03;;;4.80;99.90;;;;;;4804237;29;20093;-77
2022/01/12 08:05:08;;;;;;;290.15;48.13;;;4.40;99.90;;;;;;4788969;29;20078;-79
2022/01/12 08:07:36;;;;;;;245.30;45.85;;;5.10;99.90;;;;;;4805087;29;20082;-78
2022/01/12 08:10:04;;;;;;;306.42;49.67;;;5.10;99.90;;;;;;4820252;29;20611;-78
2022/01/12 08:12:30;;;;;;;;;;;4.40;99.90;;;;;;4813437;29;20091;-78
2022/01/12 08:14:56;;;;;;;391.42;49.45;;;5.20;99.90;;;;;;4795241;29;19924;-78
2022/01/12 08:17:21;;;;;;;402.88;52.55;;;3.30;99.90;;;;;;4812666;29;20381;-78
2022/01/12 08:19:47;;;;;;;350.42;47.20;;;3.50;99.90;;;;;;4800221;29;20066;-78
2022/01/12 08:22:13;;;;;;;406.58;51.20;;;5.40;99.90;;;;;;4802351;29;20076;-83
2022/01/12 08:24:39;;;;;;;354.73;48.47;;;6.60;99.90;;;;;;4806512;29;20481;-77
2022/01/12 08:27:05;;;;;;;346.80;45.47;;;5.90;99.90;;;;;;4817152;29;20046;-77
2022/01/12 08:29:31;;;;;;;357.38;45.72;;;4.90;99.90;;;;;;4798093;29;20310;-77
2022/01/12 08:31:57;;;;;;;370.15;44.05;;;;;;;;;;4823239;29;20493;-77
2022/01/12 08:34:22;;;;;;;340.38;41.95;;;4.50;99.90;;;;;;4806037;29;20055;-78
2022/01/12 08:36:49;;;;;;;323.38;41.67;;;5.10;99.90;;;;;;4820653;29;20050;-77
2022/01/12 08:39:15;;;;;;;311.30;42.63;;;;;;;;;;4787653;29;20043;-83
2022/01/12 08:41:41;;;;;;;332.88;42.78;;;5.00;99.90;;;;;;4796671;29;20095;-77
2022/01/12 08:44:08;;;;;;;373.50;47.20;;;5.90;99.90;;;;;;4803739;29;20046;-78
2022/01/12 08:46:35;;;;;;;351.10;42.70;;;5.80;99.90;;;;;;4822604;29;20197;-81
2022/01/12 08:49:01;;;;;;;257.47;39.37;;;4.60;99.90;;;;;;4808967;29;20054;-78
2022/01/12 08:51:27;;;;;;;216.40;38.28;;;6.70;99.90;;;;;;4804521;29;20077;-77
2022/01/12 08:53:53;;;;;;;212.95;38.63;;;5.20;99.90;;;;;;4805053;29;20493;-78
2022/01/12 08:56:19;;;;;;;183.52;37.55;;;6.40;99.90;;;;;;4806107;29;20050;-77
2022/01/12 08:58:46;;;;;;;216.98;40.67;;;5.50;99.90;;;;;;4804557;29;20358;-79
2022/01/12 09:01:12;;;;;;;226.50;40.70;;;6.00;99.90;;;;;;4788438;29;20477;-77
2022/01/12 09:03:39;;;;;;;213.88;36.38;;;5.40;99.90;;;;;;4803782;29;20050;-77
2022/01/12 09:06:06;;;;;;;249.95;38.95;;;5.30;99.90;;;;;;4803343;29;20342;-75
2022/01/12 09:08:40;;;;;;;254.52;39.15;;;5.90;99.90;;;;;;4776069;29;20477;-75
2022/01/12 09:11:07;;;;;;;334.92;40.88;;;6.90;99.90;;;;;;4804234;29;20481;-75
2022/01/12 09:13:33;;;;;;;266.70;38.85;;;7.00;99.90;;;;;;4804751;29;20089;-76
2022/01/12 09:16:03;;;;;;;231.90;37.63;;;5.30;99.90;;;;;;4803815;29;20055;-75
2022/01/12 09:18:29;;;;;;;246.38;36.38;;;5.60;99.90;;;;;;4803815;29;20043;-75
2022/01/12 09:20:56;;;;;;;287.52;38.28;;;7.60;99.90;;;;;;4804775;29;20098;-75
2022/01/12 09:23:21;;;;;;;278.77;37.83;;;5.30;99.90;;;;;;4803438;29;20062;-76
2022/01/12 09:25:47;;;;;;;218.07;36.47;;;6.20;99.90;;;;;;4804530;29;20421;-75
2022/01/12 09:28:13;;;;;;;278.50;38.50;;;5.30;99.90;;;;;;4804093;29;20039;-73
2022/01/12 09:30:38;;;;;;;259.33;39.05;;;5.60;99.90;;;;;;4820197;29;20560;-73
2022/01/12 09:33:04;;;;;;;213.10;35.60;;;5.90;99.90;;;;;;4822817;29;20558;-79
2022/01/12 09:35:30;;;;;;;210.70;37.85;;;6.00;99.90;;;;;;4805712;29;20133;-74
2022/01/12 09:37:57;;;;;;;303.92;39.33;;;;;;;;;;4815306;29;20113;-75
2022/01/12 09:40:22;;;;;;;344.83;42.20;;;7.50;99.90;;;;;;4807518;29;20538;-76
2022/01/12 09:42:49;;;;;;;299.10;38.97;;;5.80;99.90;;;;;;4807194;29;20168;-75
2022/01/12 09:45:18;;;;;;;245.68;37.22;;;7.70;99.90;;;;;;4803602;29;20114;-75
2022/01/12 09:47:49;;;;;;;271.00;39.72;;;6.30;99.90;;;;;;4803449;29;20055;-75
2022/01/12 09:50:22;;;;;;;246.68;36.45;;;7.10;99.90;;;;;;4804199;29;20459;-75
2022/01/12 09:52:49;;;;;;;239.15;34.75;;;7.80;99.90;;;;;;4813618;29;20492;-76
2022/01/12 09:55:15;;;;;;;226.65;34.78;;;5.20;99.90;;;;;;4803679;29;20830;-76
2022/01/12 09:57:41;;;;;;;279.33;36.78;;;6.00;99.90;;;;;;4803408;29;20226;-75
2022/01/12 10:00:09;;;;;;;258.23;36.20;;;6.30;99.90;;;;;;4803667;29;20054;-75
2022/01/12 10:02:34;;;;;;;234.73;34.28;;;5.50;99.90;;;;;;4801506;29;20051;-75
2022/01/12 10:05:06;;;;;;;228.27;33.60;;;6.40;99.90;;;;;;4803025;29;20108;-76
2022/01/12 10:07:32;;;;;;;219.52;31.85;;;;;;;;;;4787623;29;20082;-75
2022/01/12 10:10:10;;;;;;;224.63;32.33;;;6.40;99.90;;;;;;4802933;29;20063;-75
2022/01/12 10:12:36;;;;;;;255.07;32.05;;;6.30;99.90;;;;;;4803410;29;20062;-75
2022/01/12 10:15:10;;;;;;;218.48;31.02;;;6.30;99.90;;;;;;4802978;29;20093;-75
2022/01/12 10:17:41;;;;;;;222.30;29.80;;;6.90;99.90;;;;;;4802939;29;20512;-76
2022/01/12 10:20:10;;;;;;;215.88;31.17;;;8.00;99.90;;;;;;4803287;29;20103;-75
2022/01/12 10:22:37;;;;;;;171.77;27.05;;;6.70;99.90;;;;;;4787222;29;20058;-76
2022/01/12 10:25:17;;;;;;;151.93;26.38;;;6.40;99.90;;;;;;4786318;29;20058;-75
2022/01/12 10:27:43;;;;;;;159.15;25.23;;;5.80;99.90;;;;;;4819012;29;20043;-73
2022/01/12 10:30:21;;;;;;;198.10;28.02;;;7.40;99.90;;;;;;4779341;29;20126;-75
2022/01/12 10:32:59;;;;;;;212.27;28.60;;;6.50;99.90;;;;;;4820908;29;20046;-76
2022/01/12 10:35:29;;;;;;;200.25;26.77;;;8.30;99.90;;;;;;4822015;29;20054;-75
2022/01/12 10:38:14;;;;;;;240.27;27.83;;;8.60;99.90;;;;;;4821671;29;20051;-76
2022/01/12 10:40:47;;;;;;;182.48;23.80;;;6.30;99.90;;;;;;4804880;29;20047;-75
2022/01/12 10:43:32;;;;;;;194.45;24.50;;;6.60;99.90;;;;;;4821472;29;20099;-76
2022/01/12 10:46:00;;;;;;;152.13;24.13;;;8.70;99.90;;;;;;4803242;29;20354;-77
2022/01/12 10:48:38;;;;;;;160.50;20.98;;;6.30;99.90;;;;;;4802882;29;20520;-75
2022/01/12 10:51:04;;;;;;;;;;;6.60;99.90;;;;;;4801182;29;20134;-75
2022/01/12 10:53:34;;;;;;;164.80;21.17;;;6.90;99.90;;;;;;4803153;29;19996;-76
2022/01/12 10:56:04;;;;;;;125.63;17.15;;;8.60;99.90;;;;;;4802311;29;20055;-75
2022/01/12 10:58:30;;;;;;;121.20;16.75;;;7.30;99.90;;;;;;4790491;29;20111;-75
2022/01/12 11:00:57;;;;;;;115.28;17.65;;;7.60;99.90;;;;;;4807943;29;20046;-75
2022/01/12 11:03:23;;;;;;;114.95;14.82;;;8.50;99.90;;;;;;4814187;29;20054;-75
2022/01/12 11:05:50;;;;;;;142.88;18.48;;;6.90;99.90;;;;;;4823728;29;20051;-75
2022/01/12 11:08:18;;;;;;;116.25;18.20;;;8.90;99.90;;;;;;4823840;29;20092;-75
2022/01/12 11:10:45;;;;;;;124.10;19.30;;;6.90;99.90;;;;;;4823210;29;20111;-75
2022/01/12 11:13:14;;;;;;;124.47;18.23;;;8.70;99.90;;;;;;4794170;29;20151;-75
2022/01/12 11:15:41;;;;;;;100.20;18.15;;;8.10;99.90;;;;;;4806226;29;20438;-75
2022/01/12 11:18:08;;;;;;;109.80;16.63;;;7.10;99.90;;;;;;4806313;29;20131;-75
2022/01/12 11:20:34;;;;;;;118.38;18.60;;;7.00;99.90;;;;;;4806026;29;20058;-75
2022/01/12 11:23:12;;;;;;;120.57;18.00;;;7.10;99.90;;;;;;4806390;29;20391;-75
2022/01/12 11:25:47;;;;;;;85.35;16.10;;;7.70;99.90;;;;;;4805573;29;20088;-75
2022/01/12 11:28:36;;;;;;;106.53;17.45;;;8.30;99.90;;;;;;4806775;29;20064;-75
2022/01/12 11:31:03;;;;;;;91.60;17.05;;;7.10;99.90;;;;;;4806349;29;20055;-75
2022/01/12 11:33:31;;;;;;;103.78;18.23;;;9.60;99.90;;;;;;4806168;29;20103;-75
2022/01/12 11:36:23;;;;;;;111.30;17.70;;;7.30;99.90;;;;;;4805913;29;20067;-75
2022/01/12 11:39:00;;;;;;;100.68;15.32;;;6.30;99.90;;;;;;4804769;29;20051;-75
2022/01/12 11:41:28;;;;;;;100.80;14.82;;;7.20;99.90;;;;;;4805762;29;20483;-75
2022/01/12 11:44:00;;;;;;;101.45;16.65;;;9.30;99.90;;;;;;4805497;29;20133;-75
2022/01/12 11:46:28;;;;;;;86.97;15.73;;;7.40;99.90;;;;;;4806306;29;20086;-75
2022/01/12 11:48:59;;;;;;;90.03;16.08;;;7.90;99.90;;;;;;4804976;29;20799;-75
2022/01/12 11:51:37;;;;;;;91.22;17.17;;;9.30;99.90;;;;;;4790051;29;20054;-76
2022/01/12 11:54:15;;;;;;;74.53;17.25;;;7.20;99.90;;;;;;4804065;29;20161;-75
2022/01/12 11:56:58;;;;;;;72.13;14.88;;;7.40;99.90;;;;;;4805090;29;20059;-75
2022/01/12 11:59:26;;;;;;;72.63;15.50;;;7.60;99.90;;;;;;4805733;29;20137;-75
2022/01/12 12:01:54;;;;;;;;;;;8.80;99.90;;;;;;4804294;29;20393;-75
2022/01/12 12:04:27;;;;;;;92.10;18.20;;;7.50;99.90;;;;;;4804899;29;19932;-75
2022/01/12 12:07:02;;;;;;;81.80;17.17;;;8.10;99.90;;;;;;4805534;29;20051;-75
2022/01/12 12:09:48;;;;;;;64.60;17.05;;;7.40;99.90;;;;;;4804924;29;20070;-75
2022/01/12 12:12:28;;;;;;;68.45;15.65;;;7.50;99.90;;;;;;4789011;29;20118;-75
2022/01/12 12:14:57;;;;;;;73.95;17.80;;;6.80;99.90;;;;;;4805176;29;20059;-75
2022/01/12 12:17:24;;;;;;;94.88;17.00;;;8.20;99.90;;;;;;4804796;29;20508;-76
2022/01/12 12:19:52;;;;;;;75.85;18.23;;;7.60;99.90;;;;;;4819920;29;20743;-75
2022/01/12 12:22:30;;;;;;;73.93;18.38;;;8.50;99.90;;;;;;4814251;29;20070;-75
2022/01/12 12:25:04;;;;;;;88.97;19.58;;;9.30;99.90;;;;;;4809168;29;20401;-74
2022/01/12 12:27:31;;;;;;;70.82;18.33;;;9.60;99.90;;;;;;4799007;29;20053;-75
2022/01/12 12:29:57;;;;;;;79.72;18.50;;;7.20;99.90;;;;;;4804794;29;20565;-76
2022/01/12 12:32:45;;;;;;;92.30;19.80;;;7.20;99.90;;;;;;4805109;29;20055;-76
2022/01/12 12:35:14;;;;;;;82.28;19.27;;;7.70;99.90;;;;;;4814744;29;20051;-75
2022/01/12 12:37:53;;;;;;;68.03;19.13;;;7.80;99.90;;;;;;4804746;29;20074;-75
2022/01/12 12:40:28;;;;;;;84.18;19.95;;;8.20;99.90;;;;;;4804551;29;20050;-75
2022/01/12 12:43:01;;;;;;;80.65;20.25;;;6.40;99.90;;;;;;4804089;29;20442;-75
2022/01/12 12:45:38;;;;;;;80.65;18.98;;;9.20;99.90;;;;;;4805060;29;20111;-75
2022/01/12 12:48:05;;;;;;;67.22;19.13;;;8.20;99.90;;;;;;4813407;29;20054;-75
2022/01/12 12:50:32;;;;;;;75.93;20.42;;;7.70;99.90;;;;;;4796927;29;20051;-77
2022/01/12 12:52:58;;;;;;;69.13;19.50;;;7.60;99.90;;;;;;4805589;29;20433;-75
2022/01/12 12:55:24;;;;;;;68.03;18.45;;;8.30;99.90;;;;;;4804463;29;20389;-75
2022/01/12 12:57:53;;;;;;;69.38;18.83;;;7.40;99.90;;;;;;4804361;29;20080;-75
2022/01/12 13:00:27;;;;;;;77.43;18.52;;;7.40;99.90;;;;;;4805514;29;20086;-75
2022/01/12 13:02:55;;;;;;;71.03;18.17;;;6.80;99.90;;;;;;4811411;29;20089;-75
2022/01/12 13:05:23;;;;;;;58.17;17.70;;;7.80;99.90;;;;;;4807950;29;20164;-75
2022/01/12 13:07:50;;;;;;;58.47;17.67;;;7.80;99.90;;;;;;4804587;29;20126;-75
2022/01/12 13:10:19;;;;;;;64.97;18.75;;;6.80;99.90;;;;;;4803886;29;20062;-75
2022/01/12 13:12:48;;;;;;;76.43;20.38;;;9.10;99.90;;;;;;4807368;29;20468;-75
2022/01/12 13:15:24;;;;;;;74.65;19.20;;;7.80;99.90;;;;;;4803202;29;20086;-75
2022/01/12 13:18:07;;;;;;;82.13;19.88;;;7.50;99.90;;;;;;4804335;29;20391;-75
2022/01/12 13:23:28;;;;;;;81.25;20.60;;;7.60;99.90;;;;;;4770834;30;20135;-75
2022/01/12 13:25:58;;;;;;;87.85;22.08;;;6.50;99.90;;;;;;4785727;30;20101;-75
2022/01/12 13:28:25;;;;;;;84.55;24.10;;;7.50;99.90;;;;;;4792747;29;20512;-78
2022/01/12 13:30:59;;;;;;;82.20;22.23;;;7.90;99.90;;;;;;4804354;29;20070;-75
2022/01/12 13:33:41;;;;;;;88.88;22.70;;;8.80;99.90;;;;;;4804363;29;20055;-75
2022/01/12 13:36:23;;;;;;;91.95;21.30;;;7.30;99.90;;;;;;4803892;29;20452;-75
2022/01/12 13:39:03;;;;;;;68.80;21.10;;;7.20;99.90;;;;;;4807381;29;20042;-75
2022/01/12 13:41:31;;;;;;;84.15;23.13;;;7.40;99.90;;;;;;4807568;29;20058;-75
2022/01/12 13:44:08;;;;;;;73.20;22.55;;;7.40;99.90;;;;;;4810522;29;20054;-76
2022/01/12 13:46:39;;;;;;;76.68;22.77;;;7.30;99.90;;;;;;4804462;29;20050;-75
2022/01/12 13:51:37;;;;;;;83.50;23.17;;;7.10;99.90;;;;;;4815830;29;20091;-75
2022/01/12 13:54:14;;;;;;;80.45;22.27;;;4.90;99.90;;;;;;4821694;29;20048;-75
2022/01/12 13:56:46;;;;;;;89.65;22.73;;;7.00;99.90;;;;;;4822013;29;20050;-76
2022/01/12 13:59:15;;;;;;;84.03;22.17;;;7.10;99.90;;;;;;4804039;29;20050;-75
2022/01/12 14:01:42;;;;;;;81.25;22.80;;;6.90;99.90;;;;;;4792977;29;20540;-77
2022/01/12 14:04:14;;;;;;;74.53;21.45;;;6.90;99.90;;;;;;4794360;29;20042;-75
2022/01/12 14:06:45;;;;;;;87.13;22.23;;;6.90;99.90;;;;;;4786009;30;20043;-75
2022/01/12 14:09:21;;;;;;;73.32;20.73;;;9.40;99.90;;;;;;4788392;29;20145;-75